sensor_id;sensor_type;location;lat;lon;timestamp;P1;durP1;ratioP1;P2;durP2;ratioP2
65202;SDS011;51788;45.124;38.966;2023-02-17T00:00:32;9.95;;;7.50;;
65202;SDS011;51788;45.124;38.966;2023-02-17T00:02:58;15.27;;;9.18;;
65202;SDS011;51788;45.124;38.966;2023-02-17T00:05:24;12.48;;;9.00;;
65202;SDS011;51788;45.124;38.966;2023-02-17T00:07:52;8.98;;;7.32;;
65202;SDS011;51788;45.124;38.966;2023-02-17T00:10:18;14.30;;;8.02;;
65202;SDS011;51788;45.124;38.966;2023-02-17T00:12:44;12.95;;;6.20;;
65202;SDS011;51788;45.124;38.966;2023-02-17T00:15:10;14.38;;;9.13;;
65202;SDS011;51788;45.124;38.966;2023-02-17T00:17:36;12.23;;;8.38;;
65202;SDS011;51788;45.124;38.966;2023-02-17T00:20:02;9.32;;;7.32;;
65202;SDS011;51788;45.124;38.966;2023-02-17T00:22:29;9.20;;;6.88;;
65202;SDS011;51788;45.124;38.966;2023-02-17T00:24:55;8.40;;;5.63;;
65202;SDS011;51788;45.124;38.966;2023-02-17T00:27:21;7.20;;;5.85;;
65202;SDS011;51788;45.124;38.966;2023-02-17T00:29:47;7.55;;;6.72;;
65202;SDS011;51788;45.124;38.966;2023-02-17T00:32:13;8.50;;;5.93;;
65202;SDS011;51788;45.124;38.966;2023-02-17T00:34:38;8.32;;;5.72;;
65202;SDS011;51788;45.124;38.966;2023-02-17T00:37:05;7.72;;;6.72;;
65202;SDS011;51788;45.124;38.966;2023-02-17T00:39:31;7.88;;;6.50;;
65202;SDS011;51788;45.124;38.966;2023-02-17T00:41:57;6.55;;;5.65;;
65202;SDS011;51788;45.124;38.966;2023-02-17T00:44:23;10.98;;;7.70;;
65202;SDS011;51788;45.124;38.966;2023-02-17T00:46:50;8.30;;;7.43;;
65202;SDS011;51788;45.124;38.966;2023-02-17T00:49:22;6.82;;;5.75;;
65202;SDS011;51788;45.124;38.966;2023-02-17T00:51:50;6.43;;;5.65;;
65202;SDS011;51788;45.124;38.966;2023-02-17T00:54:17;6.13;;;5.53;;
65202;SDS011;51788;45.124;38.966;2023-02-17T00:56:44;6.38;;;5.78;;
65202;SDS011;51788;45.124;38.966;2023-02-17T00:59:10;6.90;;;5.38;;
65202;SDS011;51788;45.124;38.966;2023-02-17T01:01:36;8.27;;;5.75;;
65202;SDS011;51788;45.124;38.966;2023-02-17T01:04:03;5.57;;;5.15;;
65202;SDS011;51788;45.124;38.966;2023-02-17T01:06:31;28.00;;;5.55;;
65202;SDS011;51788;45.124;38.966;2023-02-17T01:08:59;5.72;;;5.22;;
65202;SDS011;51788;45.124;38.966;2023-02-17T01:11:26;4.22;;;3.83;;
65202;SDS011;51788;45.124;38.966;2023-02-17T01:13:56;6.93;;;5.65;;
65202;SDS011;51788;45.124;38.966;2023-02-17T01:16:29;7.50;;;4.80;;
65202;SDS011;51788;45.124;38.966;2023-02-17T01:19:00;13.18;;;5.40;;
65202;SDS011;51788;45.124;38.966;2023-02-17T01:21:28;5.85;;;5.32;;
65202;SDS011;51788;45.124;38.966;2023-02-17T01:23:56;5.38;;;4.88;;
65202;SDS011;51788;45.124;38.966;2023-02-17T01:26:24;10.27;;;4.25;;
65202;SDS011;51788;45.124;38.966;2023-02-17T01:28:52;5.63;;;5.00;;
65202;SDS011;51788;45.124;38.966;2023-02-17T01:31:19;6.10;;;4.70;;
65202;SDS011;51788;45.124;38.966;2023-02-17T01:33:46;10.90;;;4.53;;
65202;SDS011;51788;45.124;38.966;2023-02-17T01:36:13;6.60;;;5.18;;
65202;SDS011;51788;45.124;38.966;2023-02-17T01:38:40;4.97;;;4.57;;
65202;SDS011;51788;45.124;38.966;2023-02-17T01:41:07;6.28;;;4.55;;
65202;SDS011;51788;45.124;38.966;2023-02-17T01:43:34;8.88;;;4.57;;
65202;SDS011;51788;45.124;38.966;2023-02-17T01:46:04;6.32;;;4.95;;
65202;SDS011;51788;45.124;38.966;2023-02-17T01:48:32;4.88;;;4.43;;
65202;SDS011;51788;45.124;38.966;2023-02-17T01:51:09;3.83;;;3.53;;
65202;SDS011;51788;45.124;38.966;2023-02-17T01:53:42;6.70;;;4.95;;
65202;SDS011;51788;45.124;38.966;2023-02-17T01:56:14;5.97;;;5.18;;
65202;SDS011;51788;45.124;38.966;2023-02-17T01:58:42;4.53;;;4.13;;
65202;SDS011;51788;45.124;38.966;2023-02-17T02:03:40;7.00;;;5.25;;
65202;SDS011;51788;45.124;38.966;2023-02-17T02:06:08;6.97;;;5.07;;
65202;SDS011;51788;45.124;38.966;2023-02-17T02:08:40;10.75;;;4.70;;
65202;SDS011;51788;45.124;38.966;2023-02-17T02:11:28;5.72;;;5.22;;
65202;SDS011;51788;45.124;38.966;2023-02-17T02:13:54;6.68;;;5.93;;
65202;SDS011;51788;45.124;38.966;2023-02-17T02:18:53;5.18;;;4.60;;
65202;SDS011;51788;45.124;38.966;2023-02-17T02:32:48;9.23;;;4.53;;
65202;SDS011;51788;45.124;38.966;2023-02-17T02:35:50;4.63;;;4.22;;
65202;SDS011;51788;45.124;38.966;2023-02-17T02:40:53;12.85;;;5.25;;
65202;SDS011;51788;45.124;38.966;2023-02-17T02:43:25;6.82;;;4.90;;
65202;SDS011;51788;45.124;38.966;2023-02-17T02:45:51;5.10;;;4.00;;
65202;SDS011;51788;45.124;38.966;2023-02-17T02:48:18;9.52;;;5.32;;
65202;SDS011;51788;45.124;38.966;2023-02-17T02:53:42;5.13;;;4.72;;
65202;SDS011;51788;45.124;38.966;2023-02-17T03:09:34;5.35;;;3.92;;
65202;SDS011;51788;45.124;38.966;2023-02-17T03:12:00;3.88;;;3.58;;
65202;SDS011;51788;45.124;38.966;2023-02-17T03:14:29;7.05;;;4.38;;
65202;SDS011;51788;45.124;38.966;2023-02-17T03:17:01;7.38;;;5.00;;
65202;SDS011;51788;45.124;38.966;2023-02-17T03:19:26;6.78;;;5.28;;
65202;SDS011;51788;45.124;38.966;2023-02-17T03:21:57;4.45;;;4.07;;
65202;SDS011;51788;45.124;38.966;2023-02-17T03:24:30;5.28;;;4.30;;
65202;SDS011;51788;45.124;38.966;2023-02-17T03:26:57;10.48;;;4.60;;
65202;SDS011;51788;45.124;38.966;2023-02-17T03:29:23;5.57;;;4.25;;
65202;SDS011;51788;45.124;38.966;2023-02-17T03:31:49;5.28;;;4.15;;
65202;SDS011;51788;45.124;38.966;2023-02-17T03:34:14;10.70;;;4.38;;
65202;SDS011;51788;45.124;38.966;2023-02-17T03:36:40;6.28;;;4.47;;
65202;SDS011;51788;45.124;38.966;2023-02-17T03:39:06;5.45;;;4.15;;
65202;SDS011;51788;45.124;38.966;2023-02-17T03:41:32;4.10;;;3.70;;
65202;SDS011;51788;45.124;38.966;2023-02-17T03:43:58;4.57;;;3.83;;
65202;SDS011;51788;45.124;38.966;2023-02-17T03:46:24;6.45;;;4.78;;
65202;SDS011;51788;45.124;38.966;2023-02-17T03:48:50;7.97;;;5.32;;
65202;SDS011;51788;45.124;38.966;2023-02-17T03:51:17;4.95;;;4.53;;
65202;SDS011;51788;45.124;38.966;2023-02-17T03:53:47;4.03;;;3.73;;
65202;SDS011;51788;45.124;38.966;2023-02-17T03:56:13;4.65;;;4.25;;
65202;SDS011;51788;45.124;38.966;2023-02-17T03:58:40;3.75;;;3.45;;
65202;SDS011;51788;45.124;38.966;2023-02-17T04:01:07;5.40;;;4.70;;
65202;SDS011;51788;45.124;38.966;2023-02-17T04:03:35;4.10;;;3.80;;
65202;SDS011;51788;45.124;38.966;2023-02-17T04:06:01;4.70;;;4.20;;
65202;SDS011;51788;45.124;38.966;2023-02-17T04:08:27;4.80;;;4.38;;
65202;SDS011;51788;45.124;38.966;2023-02-17T04:10:54;4.78;;;4.38;;
65202;SDS011;51788;45.124;38.966;2023-02-17T04:13:23;4.78;;;4.38;;
65202;SDS011;51788;45.124;38.966;2023-02-17T04:15:50;5.88;;;4.00;;
65202;SDS011;51788;45.124;38.966;2023-02-17T04:18:16;4.15;;;3.75;;
65202;SDS011;51788;45.124;38.966;2023-02-17T04:20:42;5.53;;;5.00;;
65202;SDS011;51788;45.124;38.966;2023-02-17T04:23:09;4.95;;;4.05;;
65202;SDS011;51788;45.124;38.966;2023-02-17T04:25:36;4.45;;;4.05;;
65202;SDS011;51788;45.124;38.966;2023-02-17T04:28:03;4.95;;;4.45;;
65202;SDS011;51788;45.124;38.966;2023-02-17T04:30:29;7.30;;;5.22;;
65202;SDS011;51788;45.124;38.966;2023-02-17T04:32:56;5.20;;;4.80;;
65202;SDS011;51788;45.124;38.966;2023-02-17T04:35:22;6.78;;;5.60;;
65202;SDS011;51788;45.124;38.966;2023-02-17T04:37:48;8.60;;;4.70;;
65202;SDS011;51788;45.124;38.966;2023-02-17T04:40:14;4.95;;;4.47;;
65202;SDS011;51788;45.124;38.966;2023-02-17T04:42:40;4.82;;;4.40;;
65202;SDS011;51788;45.124;38.966;2023-02-17T04:45:06;3.17;;;2.97;;
65202;SDS011;51788;45.124;38.966;2023-02-17T04:47:33;5.10;;;4.20;;
65202;SDS011;51788;45.124;38.966;2023-02-17T04:49:59;5.20;;;4.20;;
65202;SDS011;51788;45.124;38.966;2023-02-17T04:52:25;12.85;;;5.03;;
65202;SDS011;51788;45.124;38.966;2023-02-17T04:54:51;5.05;;;4.55;;
65202;SDS011;51788;45.124;38.966;2023-02-17T04:57:17;7.25;;;5.78;;
65202;SDS011;51788;45.124;38.966;2023-02-17T04:59:42;6.43;;;4.85;;
65202;SDS011;51788;45.124;38.966;2023-02-17T05:02:08;6.97;;;5.63;;
65202;SDS011;51788;45.124;38.966;2023-02-17T05:04:34;7.68;;;5.03;;
65202;SDS011;51788;45.124;38.966;2023-02-17T05:07:00;5.88;;;5.20;;
65202;SDS011;51788;45.124;38.966;2023-02-17T05:09:26;7.45;;;5.55;;
65202;SDS011;51788;45.124;38.966;2023-02-17T05:11:52;11.23;;;5.32;;
65202;SDS011;51788;45.124;38.966;2023-02-17T05:14:18;10.13;;;6.50;;
65202;SDS011;51788;45.124;38.966;2023-02-17T05:16:44;7.55;;;6.47;;
65202;SDS011;51788;45.124;38.966;2023-02-17T05:19:11;8.95;;;6.82;;
65202;SDS011;51788;45.124;38.966;2023-02-17T05:21:37;4.97;;;4.60;;
65202;SDS011;51788;45.124;38.966;2023-02-17T05:24:03;6.20;;;5.00;;
65202;SDS011;51788;45.124;38.966;2023-02-17T05:26:29;10.55;;;6.10;;
65202;SDS011;51788;45.124;38.966;2023-02-17T05:28:55;8.85;;;6.32;;
65202;SDS011;51788;45.124;38.966;2023-02-17T05:31:21;9.45;;;7.35;;
65202;SDS011;51788;45.124;38.966;2023-02-17T05:33:47;9.88;;;6.80;;
65202;SDS011;51788;45.124;38.966;2023-02-17T05:36:13;8.35;;;4.20;;
65202;SDS011;51788;45.124;38.966;2023-02-17T05:38:39;9.48;;;7.00;;
65202;SDS011;51788;45.124;38.966;2023-02-17T05:41:05;12.57;;;5.93;;
65202;SDS011;51788;45.124;38.966;2023-02-17T05:43:31;8.93;;;6.60;;
65202;SDS011;51788;45.124;38.966;2023-02-17T05:46:01;8.73;;;7.13;;
65202;SDS011;51788;45.124;38.966;2023-02-17T05:48:28;7.75;;;6.47;;
65202;SDS011;51788;45.124;38.966;2023-02-17T05:50:54;13.77;;;6.63;;
65202;SDS011;51788;45.124;38.966;2023-02-17T05:53:20;9.25;;;7.75;;
65202;SDS011;51788;45.124;38.966;2023-02-17T05:55:46;8.18;;;7.35;;
65202;SDS011;51788;45.124;38.966;2023-02-17T05:58:12;7.47;;;5.65;;
65202;SDS011;51788;45.124;38.966;2023-02-17T06:00:38;8.70;;;7.25;;
65202;SDS011;51788;45.124;38.966;2023-02-17T06:03:04;5.50;;;4.95;;
65202;SDS011;51788;45.124;38.966;2023-02-17T06:05:30;9.35;;;6.70;;
65202;SDS011;51788;45.124;38.966;2023-02-17T06:07:56;6.65;;;6.05;;
65202;SDS011;51788;45.124;38.966;2023-02-17T06:10:22;12.57;;;7.80;;
65202;SDS011;51788;45.124;38.966;2023-02-17T06:12:48;10.85;;;7.70;;
65202;SDS011;51788;45.124;38.966;2023-02-17T06:15:14;7.47;;;6.45;;
65202;SDS011;51788;45.124;38.966;2023-02-17T06:17:40;9.85;;;7.75;;
65202;SDS011;51788;45.124;38.966;2023-02-17T06:20:06;6.13;;;5.05;;
65202;SDS011;51788;45.124;38.966;2023-02-17T06:22:33;15.50;;;8.15;;
65202;SDS011;51788;45.124;38.966;2023-02-17T06:24:59;7.18;;;6.47;;
65202;SDS011;51788;45.124;38.966;2023-02-17T06:27:25;6.15;;;5.55;;
65202;SDS011;51788;45.124;38.966;2023-02-17T06:29:51;9.07;;;6.60;;
65202;SDS011;51788;45.124;38.966;2023-02-17T06:32:17;7.45;;;6.75;;
65202;SDS011;51788;45.124;38.966;2023-02-17T06:34:45;7.85;;;7.05;;
65202;SDS011;51788;45.124;38.966;2023-02-17T06:37:11;12.07;;;6.85;;
65202;SDS011;51788;45.124;38.966;2023-02-17T06:39:36;8.60;;;7.05;;
65202;SDS011;51788;45.124;38.966;2023-02-17T06:42:02;13.57;;;8.55;;
65202;SDS011;51788;45.124;38.966;2023-02-17T06:44:28;8.27;;;7.47;;
65202;SDS011;51788;45.124;38.966;2023-02-17T06:46:55;7.10;;;6.22;;
65202;SDS011;51788;45.124;38.966;2023-02-17T06:49:21;8.32;;;6.47;;
65202;SDS011;51788;45.124;38.966;2023-02-17T06:51:47;7.55;;;6.28;;
65202;SDS011;51788;45.124;38.966;2023-02-17T06:54:13;12.90;;;6.60;;
65202;SDS011;51788;45.124;38.966;2023-02-17T06:56:39;9.65;;;8.23;;
65202;SDS011;51788;45.124;38.966;2023-02-17T06:59:05;15.40;;;6.97;;
65202;SDS011;51788;45.124;38.966;2023-02-17T07:01:31;9.40;;;7.88;;
65202;SDS011;51788;45.124;38.966;2023-02-17T07:03:57;8.65;;;6.38;;
65202;SDS011;51788;45.124;38.966;2023-02-17T07:06:23;15.43;;;8.05;;
65202;SDS011;51788;45.124;38.966;2023-02-17T07:08:49;11.52;;;7.13;;
65202;SDS011;51788;45.124;38.966;2023-02-17T07:11:15;11.88;;;8.27;;
65202;SDS011;51788;45.124;38.966;2023-02-17T07:13:41;10.40;;;8.93;;
65202;SDS011;51788;45.124;38.966;2023-02-17T07:16:08;7.72;;;6.25;;
65202;SDS011;51788;45.124;38.966;2023-02-17T07:18:36;9.30;;;6.55;;
65202;SDS011;51788;45.124;38.966;2023-02-17T07:21:03;9.60;;;7.78;;
65202;SDS011;51788;45.124;38.966;2023-02-17T07:23:30;10.88;;;7.43;;
65202;SDS011;51788;45.124;38.966;2023-02-17T07:25:59;11.88;;;9.65;;
65202;SDS011;51788;45.124;38.966;2023-02-17T07:28:29;11.70;;;7.63;;
65202;SDS011;51788;45.124;38.966;2023-02-17T07:30:55;26.40;;;6.35;;
65202;SDS011;51788;45.124;38.966;2023-02-17T07:33:21;12.52;;;7.53;;
65202;SDS011;51788;45.124;38.966;2023-02-17T07:35:47;9.82;;;6.50;;
65202;SDS011;51788;45.124;38.966;2023-02-17T07:38:13;14.85;;;6.97;;
65202;SDS011;51788;45.124;38.966;2023-02-17T07:40:39;9.85;;;7.90;;
65202;SDS011;51788;45.124;38.966;2023-02-17T07:43:05;11.75;;;7.78;;
65202;SDS011;51788;45.124;38.966;2023-02-17T07:45:32;10.57;;;8.00;;
65202;SDS011;51788;45.124;38.966;2023-02-17T07:47:58;13.75;;;8.38;;
65202;SDS011;51788;45.124;38.966;2023-02-17T07:50:24;12.30;;;8.73;;
65202;SDS011;51788;45.124;38.966;2023-02-17T07:52:50;11.90;;;8.18;;
65202;SDS011;51788;45.124;38.966;2023-02-17T07:55:16;11.48;;;8.23;;
65202;SDS011;51788;45.124;38.966;2023-02-17T07:57:42;11.57;;;8.00;;
65202;SDS011;51788;45.124;38.966;2023-02-17T08:00:08;12.88;;;8.25;;
65202;SDS011;51788;45.124;38.966;2023-02-17T08:02:43;9.23;;;7.82;;
65202;SDS011;51788;45.124;38.966;2023-02-17T08:05:10;9.52;;;7.47;;
65202;SDS011;51788;45.124;38.966;2023-02-17T08:07:36;9.88;;;7.95;;
65202;SDS011;51788;45.124;38.966;2023-02-17T08:10:02;10.90;;;7.25;;
65202;SDS011;51788;45.124;38.966;2023-02-17T08:12:46;11.43;;;7.25;;
65202;SDS011;51788;45.124;38.966;2023-02-17T08:15:31;8.82;;;7.68;;
65202;SDS011;51788;45.124;38.966;2023-02-17T08:17:58;8.20;;;7.40;;
65202;SDS011;51788;45.124;38.966;2023-02-17T08:20:25;9.07;;;5.60;;
65202;SDS011;51788;45.124;38.966;2023-02-17T08:22:51;8.77;;;7.07;;
65202;SDS011;51788;45.124;38.966;2023-02-17T08:25:17;9.70;;;6.57;;
65202;SDS011;51788;45.124;38.966;2023-02-17T08:27:43;11.40;;;7.25;;
65202;SDS011;51788;45.124;38.966;2023-02-17T08:30:10;14.40;;;8.43;;
65202;SDS011;51788;45.124;38.966;2023-02-17T08:32:36;5.97;;;5.43;;
65202;SDS011;51788;45.124;38.966;2023-02-17T08:35:02;11.48;;;7.68;;
65202;SDS011;51788;45.124;38.966;2023-02-17T08:37:28;9.93;;;7.40;;
65202;SDS011;51788;45.124;38.966;2023-02-17T08:39:56;7.95;;;7.20;;
65202;SDS011;51788;45.124;38.966;2023-02-17T08:42:26;9.70;;;8.20;;
65202;SDS011;51788;45.124;38.966;2023-02-17T08:44:52;7.85;;;6.10;;
65202;SDS011;51788;45.124;38.966;2023-02-17T08:47:18;8.13;;;7.13;;
65202;SDS011;51788;45.124;38.966;2023-02-17T08:49:44;6.93;;;6.30;;
65202;SDS011;51788;45.124;38.966;2023-02-17T08:52:10;7.68;;;6.85;;
65202;SDS011;51788;45.124;38.966;2023-02-17T08:54:35;11.63;;;8.30;;
65202;SDS011;51788;45.124;38.966;2023-02-17T08:57:02;7.35;;;6.65;;
65202;SDS011;51788;45.124;38.966;2023-02-17T08:59:28;9.27;;;7.05;;
65202;SDS011;51788;45.124;38.966;2023-02-17T09:01:54;7.75;;;6.68;;
65202;SDS011;51788;45.124;38.966;2023-02-17T09:04:20;9.52;;;7.43;;
65202;SDS011;51788;45.124;38.966;2023-02-17T09:06:50;9.10;;;7.75;;
65202;SDS011;51788;45.124;38.966;2023-02-17T09:09:20;14.75;;;8.73;;
65202;SDS011;51788;45.124;38.966;2023-02-17T09:11:48;7.07;;;6.25;;
65202;SDS011;51788;45.124;38.966;2023-02-17T09:14:14;14.27;;;7.53;;
65202;SDS011;51788;45.124;38.966;2023-02-17T09:16:40;10.20;;;7.93;;
65202;SDS011;51788;45.124;38.966;2023-02-17T09:19:06;11.27;;;7.38;;
65202;SDS011;51788;45.124;38.966;2023-02-17T09:21:32;9.20;;;8.02;;
65202;SDS011;51788;45.124;38.966;2023-02-17T09:23:58;9.77;;;6.97;;
65202;SDS011;51788;45.124;38.966;2023-02-17T09:26:24;9.45;;;6.05;;
65202;SDS011;51788;45.124;38.966;2023-02-17T09:28:49;7.78;;;5.63;;
65202;SDS011;51788;45.124;38.966;2023-02-17T09:31:16;6.72;;;5.60;;
65202;SDS011;51788;45.124;38.966;2023-02-17T09:33:45;5.32;;;4.88;;
65202;SDS011;51788;45.124;38.966;2023-02-17T09:36:15;4.53;;;4.05;;
65202;SDS011;51788;45.124;38.966;2023-02-17T09:38:43;4.80;;;4.07;;
65202;SDS011;51788;45.124;38.966;2023-02-17T09:41:15;5.18;;;4.78;;
65202;SDS011;51788;45.124;38.966;2023-02-17T09:43:48;5.47;;;4.03;;
65202;SDS011;51788;45.124;38.966;2023-02-17T09:49:18;3.00;;;2.80;;
65202;SDS011;51788;45.124;38.966;2023-02-17T09:57:29;1.00;;;1.00;;
65202;SDS011;51788;45.124;38.966;2023-02-17T10:00:11;1.10;;;1.10;;
65202;SDS011;51788;45.124;38.966;2023-02-17T10:02:45;1.25;;;1.25;;
65202;SDS011;51788;45.124;38.966;2023-02-17T10:05:22;1.05;;;1.05;;
65202;SDS011;51788;45.124;38.966;2023-02-17T10:08:14;1.08;;;1.08;;
65202;SDS011;51788;45.124;38.966;2023-02-17T10:11:04;1.30;;;1.30;;
65202;SDS011;51788;45.124;38.966;2023-02-17T10:13:38;2.38;;;1.38;;
65202;SDS011;51788;45.124;38.966;2023-02-17T10:16:08;1.42;;;1.42;;
65202;SDS011;51788;45.124;38.966;2023-02-17T10:18:41;1.65;;;1.55;;
65202;SDS011;51788;45.124;38.966;2023-02-17T10:21:24;2.25;;;1.48;;
65202;SDS011;51788;45.124;38.966;2023-02-17T10:23:54;1.30;;;1.30;;
65202;SDS011;51788;45.124;38.966;2023-02-17T10:32:05;1.42;;;1.40;;
65202;SDS011;51788;45.124;38.966;2023-02-17T10:34:47;1.35;;;1.33;;
65202;SDS011;51788;45.124;38.966;2023-02-17T10:40:11;1.50;;;1.50;;
65202;SDS011;51788;45.124;38.966;2023-02-17T10:42:44;4.00;;;1.58;;
65202;SDS011;51788;45.124;38.966;2023-02-17T10:45:18;1.27;;;1.27;;
65202;SDS011;51788;45.124;38.966;2023-02-17T10:48:27;1.30;;;1.30;;
65202;SDS011;51788;45.124;38.966;2023-02-17T10:51:05;1.40;;;1.30;;
65202;SDS011;51788;45.124;38.966;2023-02-17T10:53:32;2.13;;;1.40;;
65202;SDS011;51788;45.124;38.966;2023-02-17T11:01:03;1.50;;;1.40;;
65202;SDS011;51788;45.124;38.966;2023-02-17T11:03:31;1.83;;;1.73;;
65202;SDS011;51788;45.124;38.966;2023-02-17T11:11:33;1.70;;;1.60;;
65202;SDS011;51788;45.124;38.966;2023-02-17T11:14:02;4.68;;;1.50;;
65202;SDS011;51788;45.124;38.966;2023-02-17T11:16:43;5.03;;;1.30;;
65202;SDS011;51788;45.124;38.966;2023-02-17T11:22:25;1.95;;;1.55;;
65202;SDS011;51788;45.124;38.966;2023-02-17T11:24:57;3.80;;;1.90;;
65202;SDS011;51788;45.124;38.966;2023-02-17T11:27:24;1.10;;;1.10;;
65202;SDS011;51788;45.124;38.966;2023-02-17T11:29:51;3.67;;;1.92;;
65202;SDS011;51788;45.124;38.966;2023-02-17T11:32:17;1.30;;;1.30;;
65202;SDS011;51788;45.124;38.966;2023-02-17T11:34:54;1.45;;;1.30;;
65202;SDS011;51788;45.124;38.966;2023-02-17T11:37:22;1.27;;;1.25;;
65202;SDS011;51788;45.124;38.966;2023-02-17T11:39:52;1.73;;;1.35;;
65202;SDS011;51788;45.124;38.966;2023-02-17T11:42:20;1.67;;;1.58;;
65202;SDS011;51788;45.124;38.966;2023-02-17T11:44:46;1.20;;;1.20;;
65202;SDS011;51788;45.124;38.966;2023-02-17T11:50:16;3.05;;;1.85;;
65202;SDS011;51788;45.124;38.966;2023-02-17T11:53:08;1.70;;;1.60;;
65202;SDS011;51788;45.124;38.966;2023-02-17T12:04:30;1.77;;;1.67;;
65202;SDS011;51788;45.124;38.966;2023-02-17T12:15:30;5.35;;;1.20;;
65202;SDS011;51788;45.124;38.966;2023-02-17T12:18:29;1.70;;;1.52;;
65202;SDS011;51788;45.124;38.966;2023-02-17T12:26:40;2.17;;;1.58;;
65202;SDS011;51788;45.124;38.966;2023-02-17T12:29:15;3.13;;;1.95;;
65202;SDS011;51788;45.124;38.966;2023-02-17T12:34:38;12.95;;;2.10;;
65202;SDS011;51788;45.124;38.966;2023-02-17T12:37:18;6.25;;;2.10;;
65202;SDS011;51788;45.124;38.966;2023-02-17T12:39:50;2.17;;;1.90;;
65202;SDS011;51788;45.124;38.966;2023-02-17T12:42:26;3.28;;;1.67;;
65202;SDS011;51788;45.124;38.966;2023-02-17T12:45:02;5.30;;;1.80;;
65202;SDS011;51788;45.124;38.966;2023-02-17T12:47:45;1.55;;;1.50;;
65202;SDS011;51788;45.124;38.966;2023-02-17T12:50:37;1.40;;;1.38;;
65202;SDS011;51788;45.124;38.966;2023-02-17T12:53:10;2.00;;;1.30;;
65202;SDS011;51788;45.124;38.966;2023-02-17T12:55:45;1.50;;;1.50;;
65202;SDS011;51788;45.124;38.966;2023-02-17T12:58:19;3.42;;;1.90;;
65202;SDS011;51788;45.124;38.966;2023-02-17T13:01:05;1.40;;;1.38;;
65202;SDS011;51788;45.124;38.966;2023-02-17T13:03:35;3.17;;;1.33;;
65202;SDS011;51788;45.124;38.966;2023-02-17T13:13:54;2.25;;;1.50;;
65202;SDS011;51788;45.124;38.966;2023-02-17T13:16:20;1.45;;;1.38;;
65202;SDS011;51788;45.124;38.966;2023-02-17T13:18:47;1.48;;;1.40;;
65202;SDS011;51788;45.124;38.966;2023-02-17T13:21:24;3.38;;;1.48;;
65202;SDS011;51788;45.124;38.966;2023-02-17T13:26:30;1.95;;;1.20;;
65202;SDS011;51788;45.124;38.966;2023-02-17T13:29:17;2.30;;;1.30;;
65202;SDS011;51788;45.124;38.966;2023-02-17T13:31:53;4.50;;;1.55;;
65202;SDS011;51788;45.124;38.966;2023-02-17T13:36:56;2.30;;;1.30;;
65202;SDS011;51788;45.124;38.966;2023-02-17T13:41:51;1.10;;;1.10;;
65202;SDS011;51788;45.124;38.966;2023-02-17T13:44:23;1.20;;;1.17;;
65202;SDS011;51788;45.124;38.966;2023-02-17T13:49:59;2.47;;;1.10;;
65202;SDS011;51788;45.124;38.966;2023-02-17T13:52:27;1.67;;;1.58;;
65202;SDS011;51788;45.124;38.966;2023-02-17T13:54:55;1.08;;;1.08;;
65202;SDS011;51788;45.124;38.966;2023-02-17T13:57:23;2.20;;;1.13;;
65202;SDS011;51788;45.124;38.966;2023-02-17T13:59:50;2.75;;;1.10;;
65202;SDS011;51788;45.124;38.966;2023-02-17T14:02:17;1.10;;;1.10;;
65202;SDS011;51788;45.124;38.966;2023-02-17T14:04:44;2.20;;;1.33;;
65202;SDS011;51788;45.124;38.966;2023-02-17T14:07:10;1.23;;;1.23;;
65202;SDS011;51788;45.124;38.966;2023-02-17T14:09:36;2.13;;;2.00;;
65202;SDS011;51788;45.124;38.966;2023-02-17T14:12:05;1.00;;;1.00;;
65202;SDS011;51788;45.124;38.966;2023-02-17T14:14:33;4.72;;;1.23;;
65202;SDS011;51788;45.124;38.966;2023-02-17T14:17:03;5.05;;;1.77;;
65202;SDS011;51788;45.124;38.966;2023-02-17T14:19:44;3.00;;;1.40;;
65202;SDS011;51788;45.124;38.966;2023-02-17T14:22:28;1.42;;;1.33;;
65202;SDS011;51788;45.124;38.966;2023-02-17T14:25:14;1.42;;;1.33;;
65202;SDS011;51788;45.124;38.966;2023-02-17T14:27:51;6.15;;;1.85;;
65202;SDS011;51788;45.124;38.966;2023-02-17T14:30:33;1.80;;;1.60;;
65202;SDS011;51788;45.124;38.966;2023-02-17T14:33:04;1.63;;;1.52;;
65202;SDS011;51788;45.124;38.966;2023-02-17T14:35:32;3.72;;;1.80;;
65202;SDS011;51788;45.124;38.966;2023-02-17T14:38:06;1.73;;;1.63;;
65202;SDS011;51788;45.124;38.966;2023-02-17T14:40:44;2.10;;;1.90;;
65202;SDS011;51788;45.124;38.966;2023-02-17T14:43:10;7.90;;;2.00;;
65202;SDS011;51788;45.124;38.966;2023-02-17T14:45:36;2.85;;;1.55;;
65202;SDS011;51788;45.124;38.966;2023-02-17T14:48:02;2.40;;;2.20;;
65202;SDS011;51788;45.124;38.966;2023-02-17T14:50:28;2.42;;;2.30;;
65202;SDS011;51788;45.124;38.966;2023-02-17T14:52:57;2.00;;;1.80;;
65202;SDS011;51788;45.124;38.966;2023-02-17T14:55:26;2.55;;;2.35;;
65202;SDS011;51788;45.124;38.966;2023-02-17T14:57:59;2.45;;;2.25;;
65202;SDS011;51788;45.124;38.966;2023-02-17T15:00:25;3.50;;;2.50;;
65202;SDS011;51788;45.124;38.966;2023-02-17T15:02:51;2.38;;;2.17;;
65202;SDS011;51788;45.124;38.966;2023-02-17T15:05:17;3.80;;;2.45;;
65202;SDS011;51788;45.124;38.966;2023-02-17T15:07:44;3.47;;;2.20;;
65202;SDS011;51788;45.124;38.966;2023-02-17T15:10:29;2.45;;;2.30;;
65202;SDS011;51788;45.124;38.966;2023-02-17T15:12:55;7.03;;;2.38;;
65202;SDS011;51788;45.124;38.966;2023-02-17T15:15:22;5.15;;;2.53;;
65202;SDS011;51788;45.124;38.966;2023-02-17T15:17:48;2.53;;;2.33;;
65202;SDS011;51788;45.124;38.966;2023-02-17T15:20:15;2.33;;;2.13;;
65202;SDS011;51788;45.124;38.966;2023-02-17T15:22:41;2.05;;;1.95;;
65202;SDS011;51788;45.124;38.966;2023-02-17T15:25:19;7.70;;;2.53;;
65202;SDS011;51788;45.124;38.966;2023-02-17T15:28:01;3.03;;;2.28;;
65202;SDS011;51788;45.124;38.966;2023-02-17T15:30:26;2.28;;;2.10;;
65202;SDS011;51788;45.124;38.966;2023-02-17T15:32:52;5.07;;;2.63;;
65202;SDS011;51788;45.124;38.966;2023-02-17T15:35:23;2.75;;;1.90;;
65202;SDS011;51788;45.124;38.966;2023-02-17T15:37:51;6.72;;;3.13;;
65202;SDS011;51788;45.124;38.966;2023-02-17T15:40:27;4.93;;;1.60;;
65202;SDS011;51788;45.124;38.966;2023-02-17T15:42:57;2.78;;;1.73;;
65202;SDS011;51788;45.124;38.966;2023-02-17T15:45:30;4.30;;;2.85;;
65202;SDS011;51788;45.124;38.966;2023-02-17T15:48:17;2.15;;;2.00;;
65202;SDS011;51788;45.124;38.966;2023-02-17T15:50:49;1.98;;;1.75;;
65202;SDS011;51788;45.124;38.966;2023-02-17T15:53:15;2.95;;;1.85;;
65202;SDS011;51788;45.124;38.966;2023-02-17T15:55:41;3.63;;;1.50;;
65202;SDS011;51788;45.124;38.966;2023-02-17T15:58:17;2.65;;;2.05;;
65202;SDS011;51788;45.124;38.966;2023-02-17T16:00:45;4.53;;;2.03;;
65202;SDS011;51788;45.124;38.966;2023-02-17T16:03:12;2.45;;;2.13;;
65202;SDS011;51788;45.124;38.966;2023-02-17T16:05:39;3.03;;;1.48;;
65202;SDS011;51788;45.124;38.966;2023-02-17T16:08:05;3.42;;;2.30;;
65202;SDS011;51788;45.124;38.966;2023-02-17T16:10:31;2.97;;;2.63;;
65202;SDS011;51788;45.124;38.966;2023-02-17T16:12:58;2.85;;;2.17;;
65202;SDS011;51788;45.124;38.966;2023-02-17T16:15:27;4.55;;;3.13;;
65202;SDS011;51788;45.124;38.966;2023-02-17T16:17:55;3.70;;;3.28;;
65202;SDS011;51788;45.124;38.966;2023-02-17T16:20:29;3.33;;;2.50;;
65202;SDS011;51788;45.124;38.966;2023-02-17T16:22:59;2.70;;;2.42;;
65202;SDS011;51788;45.124;38.966;2023-02-17T16:25:26;2.70;;;2.50;;
65202;SDS011;51788;45.124;38.966;2023-02-17T16:27:53;3.92;;;3.00;;
65202;SDS011;51788;45.124;38.966;2023-02-17T16:30:21;4.25;;;3.17;;
65202;SDS011;51788;45.124;38.966;2023-02-17T16:32:49;2.95;;;2.72;;
65202;SDS011;51788;45.124;38.966;2023-02-17T16:35:17;5.35;;;2.88;;
65202;SDS011;51788;45.124;38.966;2023-02-17T16:37:48;3.60;;;2.88;;